Time;durP1;ratioP1;P1;durP2;ratioP2;P2;SDS_P1;SDS_P2;PMS_P1;PMS_P2;Temp;Humidity;BMP_temperature;BMP_pressure;BME280_temperature;BME280_humidity;BME280_pressure;Samples;Min_cycle;Max_cycle;Signal;HPM_P1;HPM_P2
2021/05/12 00:01:46;;;;;;;2.40;2.17;;;13.20;62.10;;;;;;5032561;28;20377;-65
2021/05/12 00:04:12;;;;;;;2.50;2.30;;;13.10;62.10;;;;;;5032651;28;20409;-65
2021/05/12 00:06:38;;;;;;;3.25;2.40;;;13.10;62.50;;;;;;5032444;28;20026;-65
2021/05/12 00:09:04;;;;;;;2.50;2.30;;;13.10;62.60;;;;;;5032432;28;20026;-65
2021/05/12 00:11:30;;;;;;;2.58;2.38;;;13.00;62.70;;;;;;5015774;28;20026;-65
2021/05/12 00:13:55;;;;;;;2.25;2.15;;;13.00;62.90;;;;;;5012745;28;20101;-65
2021/05/12 00:16:21;;;;;;;3.97;2.20;;;13.00;62.70;;;;;;5015214;28;20029;-65
2021/05/12 00:18:47;;;;;;;2.45;2.25;;;12.90;63.00;;;;;;5023847;28;20030;-65
2021/05/12 00:21:27;;;;;;;3.75;2.47;;;12.90;63.30;;;;;;5036145;28;20048;-65
2021/05/12 00:24:01;;;;;;;2.40;2.20;;;12.80;63.40;;;;;;5036051;28;20072;-65
2021/05/12 00:26:37;;;;;;;2.42;2.22;;;12.80;63.40;;;;;;5036092;28;20034;-65
2021/05/12 00:29:04;;;;;;;3.92;2.45;;;12.70;63.40;;;;;;5018323;28;20018;-65
2021/05/12 00:31:30;;;;;;;2.30;2.10;;;12.70;63.80;;;;;;5016079;28;20022;-65
2021/05/12 00:33:56;;;;;;;4.53;2.40;;;12.60;64.00;;;;;;5016231;28;20029;-65
2021/05/12 00:36:21;;;;;;;2.03;1.92;;;12.60;63.90;;;;;;5018006;28;20493;-65
2021/05/12 00:38:47;;;;;;;3.83;2.25;;;12.60;64.40;;;;;;5035712;28;20037;-65
2021/05/12 00:41:12;;;;;;;1.73;1.63;;;12.50;64.30;;;;;;5035581;28;20029;-65
2021/05/12 00:43:38;;;;;;;2.20;2.00;;;12.50;64.60;;;;;;5035579;28;20025;-65
2021/05/12 00:46:04;;;;;;;2.08;1.85;;;12.40;64.50;;;;;;5017581;28;20036;-65
2021/05/12 00:48:29;;;;;;;2.38;2.17;;;12.40;64.80;;;;;;5015745;28;20112;-65
2021/05/12 00:50:55;;;;;;;2.25;2.15;;;12.40;65.30;;;;;;5015715;28;20363;-65
2021/05/12 00:53:21;;;;;;;2.17;2.00;;;12.40;65.00;;;;;;5015768;28;20026;-65
2021/05/12 00:55:48;;;;;;;2.00;1.90;;;12.30;65.00;;;;;;5015404;28;20169;-65
2021/05/12 00:58:13;;;;;;;2.35;2.13;;;12.30;65.10;;;;;;5015495;28;20113;-65
2021/05/12 01:00:39;;;;;;;2.28;2.10;;;12.30;65.30;;;;;;5015467;28;20068;-65
2021/05/12 01:03:06;;;;;;;2.30;2.10;;;12.20;65.10;;;;;;5017322;28;20034;-65
2021/05/12 01:05:34;;;;;;;2.20;2.10;;;12.20;65.40;;;;;;5015460;28;20474;-65
2021/05/12 01:08:05;;;;;;;2.47;2.20;;;12.20;65.50;;;;;;5015444;28;20022;-65
2021/05/12 01:10:32;;;;;;;3.28;2.40;;;12.20;65.40;;;;;;5018497;28;20373;-65
2021/05/12 01:12:58;;;;;;;2.55;2.35;;;12.20;65.50;;;;;;5031240;28;20458;-65
2021/05/12 01:15:26;;;;;;;2.03;1.83;;;12.20;65.60;;;;;;5015362;28;20396;-65
2021/05/12 01:17:52;;;;;;;2.33;2.13;;;12.10;65.50;;;;;;5024160;28;20021;-65
2021/05/12 01:20:17;;;;;;;2.40;2.08;;;12.10;65.50;;;;;;5015582;28;20056;-65
2021/05/12 01:22:43;;;;;;;2.30;2.10;;;12.10;65.60;;;;;;5015275;28;20355;-65
2021/05/12 01:25:10;;;;;;;2.05;1.90;;;12.10;66.00;;;;;;5015076;28;20440;-65
2021/05/12 01:27:37;;;;;;;2.00;1.90;;;12.10;66.00;;;;;;5014264;28;20040;-65
2021/05/12 01:30:05;;;;;;;2.50;2.20;;;12.00;66.20;;;;;;5014933;28;20018;-65
2021/05/12 01:32:35;;;;;;;1.90;1.80;;;12.00;66.20;;;;;;5014871;28;20350;-65
2021/05/12 01:35:09;;;;;;;2.17;1.98;;;12.00;66.30;;;;;;5030599;28;20025;-65
2021/05/12 01:37:35;;;;;;;2.30;2.00;;;12.00;66.20;;;;;;5014979;28;20112;-65
2021/05/12 01:40:06;;;;;;;2.00;1.90;;;12.00;66.40;;;;;;5014767;28;20050;-65
2021/05/12 01:42:32;;;;;;;2.60;2.05;;;12.00;66.50;;;;;;5014887;28;20018;-65
2021/05/12 01:45:06;;;;;;;1.98;1.88;;;11.90;66.70;;;;;;5014709;28;20033;-65
2021/05/12 01:47:32;;;;;;;2.22;2.03;;;12.00;66.90;;;;;;5014589;28;20496;-65
2021/05/12 01:50:02;;;;;;;1.77;1.67;;;12.00;66.80;;;;;;5014655;28;20018;-65
2021/05/12 01:52:28;;;;;;;2.15;2.05;;;11.90;66.60;;;;;;5017265;28;20014;-65
2021/05/12 01:54:53;;;;;;;1.70;1.50;;;12.00;66.50;;;;;;5032846;28;20409;-65
2021/05/12 01:57:19;;;;;;;2.08;1.88;;;11.90;66.50;;;;;;5034318;28;20036;-65
2021/05/12 01:59:45;;;;;;;1.88;1.77;;;11.90;66.60;;;;;;5034257;28;20436;-65
2021/05/12 02:02:10;;;;;;;1.88;1.77;;;11.90;66.60;;;;;;5034090;28;20405;-65
2021/05/12 02:04:39;;;;;;;1.83;1.73;;;11.90;66.30;;;;;;5019701;28;20033;-65
2021/05/12 02:07:07;;;;;;;1.98;1.88;;;11.90;66.70;;;;;;5025055;28;20036;-65
2021/05/12 02:09:40;;;;;;;1.98;1.83;;;11.90;66.70;;;;;;5019319;28;20025;-65
2021/05/12 02:12:06;;;;;;;2.00;1.90;;;11.90;66.80;;;;;;5010814;28;20025;-65
2021/05/12 02:14:33;;;;;;;1.58;1.48;;;11.90;67.20;;;;;;5033919;28;20013;-65
2021/05/12 02:16:59;;;;;;;1.27;1.20;;;11.90;67.20;;;;;;5031699;28;20037;-65
2021/05/12 02:19:25;;;;;;;1.70;1.60;;;11.80;67.30;;;;;;5014435;28;20033;-65
2021/05/12 02:21:50;;;;;;;1.65;1.55;;;11.80;67.30;;;;;;5014105;28;20119;-65
2021/05/12 02:24:16;;;;;;;1.77;1.50;;;11.80;67.60;;;;;;5013888;28;20429;-65
2021/05/12 02:26:41;;;;;;;1.20;1.20;;;11.80;67.70;;;;;;5014473;28;20067;-65
2021/05/12 02:29:07;;;;;;;1.08;1.00;;;11.80;67.70;;;;;;5013850;28;20032;-65
2021/05/12 02:31:33;;;;;;;1.20;1.20;;;11.80;67.60;;;;;;5014142;28;20378;-65
2021/05/12 02:33:58;;;;;;;1.33;1.23;;;11.80;67.80;;;;;;5023194;28;20112;-65
2021/05/12 02:36:24;;;;;;;1.20;1.15;;;11.90;68.00;;;;;;5022748;28;20076;-65
2021/05/12 02:38:50;;;;;;;1.10;1.10;;;11.90;67.90;;;;;;5033409;28;20072;-65
2021/05/12 02:41:15;;;;;;;1.27;1.17;;;11.90;67.90;;;;;;5033699;28;20021;-65
2021/05/12 02:43:41;;;;;;;1.08;1.08;;;11.90;68.00;;;;;;5026794;28;20470;-65
2021/05/12 02:46:07;;;;;;;1.10;1.10;;;11.90;68.00;;;;;;5013566;28;20033;-65
2021/05/12 02:48:32;;;;;;;1.33;1.33;;;12.00;67.70;;;;;;5013552;28;20097;-66
2021/05/12 02:50:58;;;;;;;1.30;1.20;;;12.00;67.80;;;;;;5014091;28;20332;-65
2021/05/12 02:53:24;;;;;;;1.23;1.13;;;12.00;67.60;;;;;;5013540;28;20471;-65
2021/05/12 02:55:49;;;;;;;1.02;1.02;;;12.00;67.80;;;;;;5013353;28;20164;-65
2021/05/12 02:58:15;;;;;;;1.52;1.20;;;12.10;67.90;;;;;;5013437;28;20037;-65
2021/05/12 03:00:42;;;;;;;1.17;1.17;;;12.10;67.70;;;;;;5019492;28;20053;-65
2021/05/12 03:03:09;;;;;;;1.60;0.90;;;12.10;67.50;;;;;;5030136;28;20056;-65
2021/05/12 03:05:35;;;;;;;1.33;1.23;;;12.10;67.50;;;;;;5020170;28;20560;-65
2021/05/12 03:08:02;;;;;;;0.90;0.90;;;12.10;67.40;;;;;;5033052;28;20041;-65
2021/05/12 03:10:31;;;;;;;1.05;1.05;;;12.10;67.70;;;;;;5033096;28;20029;-65
2021/05/12 03:12:57;;;;;;;1.08;1.00;;;12.20;67.70;;;;;;5016336;28;20413;-66
2021/05/12 03:15:25;;;;;;;0.85;0.85;;;12.20;67.80;;;;;;5013323;28;20466;-66
2021/05/12 03:17:56;;;;;;;0.95;0.95;;;12.30;67.80;;;;;;5014220;28;20041;-66
2021/05/12 03:20:24;;;;;;;1.13;1.10;;;12.40;67.80;;;;;;5032986;28;20048;-66
2021/05/12 03:22:49;;;;;;;1.30;1.20;;;12.50;67.40;;;;;;5032831;28;20114;-66
2021/05/12 03:25:16;;;;;;;1.05;1.05;;;12.50;67.20;;;;;;5032874;28;20065;-66
2021/05/12 03:27:42;;;;;;;0.93;0.90;;;12.50;67.10;;;;;;5032741;28;20037;-66
2021/05/12 03:30:11;;;;;;;1.27;1.25;;;12.50;66.90;;;;;;5032810;28;20112;-66
2021/05/12 03:32:37;;;;;;;1.27;1.17;;;12.40;67.00;;;;;;5032708;28;20053;-66
2021/05/12 03:35:05;;;;;;;1.00;1.00;;;12.40;67.20;;;;;;5031038;28;20030;-66
2021/05/12 03:37:30;;;;;;;1.40;1.30;;;12.30;67.50;;;;;;5023118;28;20108;-66
2021/05/12 03:39:56;;;;;;;1.17;1.02;;;12.30;68.30;;;;;;5031318;28;20481;-66
2021/05/12 03:42:21;;;;;;;0.88;0.88;;;12.30;67.60;;;;;;5030663;28;20036;-66
2021/05/12 03:44:47;;;;;;;1.10;1.10;;;12.30;67.40;;;;;;5030722;28;20378;-66
2021/05/12 03:47:13;;;;;;;1.98;1.30;;;12.30;67.40;;;;;;5030714;28;20029;-66
2021/05/12 03:49:38;;;;;;;1.13;1.10;;;12.30;67.20;;;;;;5031096;28;20022;-66
2021/05/12 03:52:04;;;;;;;1.73;1.33;;;12.30;67.30;;;;;;5025373;28;20025;-65
2021/05/12 03:54:30;;;;;;;2.65;1.00;;;12.30;67.80;;;;;;5019718;28;20621;-66
2021/05/12 03:56:55;;;;;;;1.13;1.00;;;12.20;67.70;;;;;;5016257;28;20029;-66
2021/05/12 03:59:22;;;;;;;1.33;1.30;;;12.20;67.80;;;;;;5016842;28;20074;-66
2021/05/12 04:01:48;;;;;;;2.10;1.17;;;12.20;67.80;;;;;;5016584;28;20040;-66
2021/05/12 04:04:16;;;;;;;1.75;1.23;;;12.20;67.80;;;;;;5027595;28;20108;-66
2021/05/12 04:06:44;;;;;;;1.23;1.20;;;12.10;68.00;;;;;;5036264;28;20377;-66
2021/05/12 04:09:10;;;;;;;1.25;1.25;;;12.10;68.20;;;;;;5035516;28;20481;-66
2021/05/12 04:11:36;;;;;;;1.23;1.23;;;12.10;67.90;;;;;;5013784;28;20390;-66
2021/05/12 04:14:02;;;;;;;1.15;1.15;;;12.10;68.20;;;;;;5035659;28;20014;-66
2021/05/12 04:16:27;;;;;;;1.85;1.17;;;12.10;68.20;;;;;;5036124;28;20097;-66
2021/05/12 04:18:53;;;;;;;1.20;1.20;;;12.10;68.90;;;;;;5018653;28;20152;-66
2021/05/12 04:21:19;;;;;;;1.63;1.52;;;12.10;68.30;;;;;;5016377;28;20033;-66
2021/05/12 04:23:45;;;;;;;1.40;1.30;;;12.10;68.50;;;;;;5016551;28;20116;-66
2021/05/12 04:26:10;;;;;;;2.15;1.40;;;12.10;68.40;;;;;;5016952;28;20109;-66
2021/05/12 04:28:37;;;;;;;1.50;1.40;;;12.10;68.30;;;;;;5016442;28;20025;-66
2021/05/12 04:31:02;;;;;;;1.60;1.50;;;12.10;68.50;;;;;;5016046;28;20036;-66
2021/05/12 04:33:28;;;;;;;1.55;1.50;;;12.10;68.50;;;;;;5023317;28;20025;-66
2021/05/12 04:35:54;;;;;;;1.67;1.58;;;12.10;68.80;;;;;;5035885;28;20457;-66
2021/05/12 04:38:20;;;;;;;1.60;1.50;;;12.10;69.10;;;;;;5035742;28;20022;-66
2021/05/12 04:40:45;;;;;;;1.88;1.67;;;12.10;69.10;;;;;;5035699;28;20026;-66
2021/05/12 04:43:12;;;;;;;1.65;1.55;;;12.10;69.90;;;;;;5022474;28;20472;-66
2021/05/12 04:45:37;;;;;;;1.52;1.42;;;12.20;69.50;;;;;;5015897;28;20096;-66
2021/05/12 04:48:03;;;;;;;1.50;1.50;;;12.20;69.70;;;;;;5016278;28;20113;-66
2021/05/12 04:50:32;;;;;;;1.65;1.55;;;12.20;69.70;;;;;;5033800;28;20036;-66
2021/05/12 04:52:58;;;;;;;1.60;1.50;;;12.30;69.80;;;;;;5034671;28;20030;-66
2021/05/12 04:55:24;;;;;;;2.63;1.80;;;12.30;69.70;;;;;;5033149;28;20099;-66
2021/05/12 04:57:50;;;;;;;1.80;1.70;;;12.30;69.70;;;;;;5033659;28;20462;-66
2021/05/12 05:00:19;;;;;;;1.73;1.50;;;12.30;69.60;;;;;;5027133;28;20021;-66
2021/05/12 05:02:44;;;;;;;1.60;1.50;;;12.40;69.40;;;;;;5028334;28;20500;-66
2021/05/12 05:05:16;;;;;;;1.75;1.65;;;12.50;70.50;;;;;;5029739;28;20057;-66
2021/05/12 05:07:42;;;;;;;1.63;1.52;;;12.60;69.60;;;;;;5023010;28;20029;-63
2021/05/12 05:10:08;;;;;;;2.20;2.00;;;12.70;69.50;;;;;;5028744;28;20030;-64
2021/05/12 05:12:34;;;;;;;1.83;1.67;;;12.70;69.60;;;;;;5031403;28;20064;-64
2021/05/12 05:15:00;;;;;;;1.98;1.50;;;12.80;69.50;;;;;;5028052;28;20061;-64
2021/05/12 05:17:29;;;;;;;1.80;1.70;;;12.80;69.60;;;;;;5023642;28;20117;-64
2021/05/12 05:19:55;;;;;;;1.45;1.35;;;12.90;69.20;;;;;;5030021;28;20052;-63
2021/05/12 05:22:21;;;;;;;1.17;1.17;;;13.00;69.00;;;;;;5034368;28;20040;-63
2021/05/12 05:24:50;;;;;;;1.15;1.15;;;13.00;68.60;;;;;;5012395;28;20069;-64
2021/05/12 05:27:16;;;;;;;1.58;1.33;;;13.10;68.30;;;;;;5019202;28;20125;-63
2021/05/12 05:29:41;;;;;;;1.00;1.00;;;13.10;68.10;;;;;;5017026;28;20152;-64
2021/05/12 05:32:07;;;;;;;0.95;0.95;;;13.10;67.70;;;;;;5023961;28;20120;-63
2021/05/12 05:34:33;;;;;;;1.10;1.10;;;13.10;67.30;;;;;;5022237;28;20025;-62
2021/05/12 05:36:59;;;;;;;0.70;0.70;;;13.10;67.00;;;;;;5016012;28;20025;-63
2021/05/12 05:39:24;;;;;;;0.90;0.90;;;13.00;67.00;;;;;;5025216;28;20129;-63
2021/05/12 05:41:55;;;;;;;1.92;1.00;;;13.00;67.60;;;;;;5025389;28;20025;-63
2021/05/12 05:44:21;;;;;;;1.38;0.90;;;13.00;68.30;;;;;;5023123;28;20064;-63
2021/05/12 05:46:46;;;;;;;2.45;1.02;;;13.00;67.60;;;;;;5021588;28;20112;-64
2021/05/12 05:49:12;;;;;;;0.80;0.80;;;13.10;67.60;;;;;;5028545;28;20025;-64
2021/05/12 05:51:38;;;;;;;0.77;0.77;;;13.10;67.70;;;;;;5021115;28;20025;-64
2021/05/12 05:54:04;;;;;;;0.80;0.80;;;13.10;67.60;;;;;;5022994;28;20041;-64
2021/05/12 05:56:30;;;;;;;0.80;0.80;;;13.20;67.80;;;;;;5023217;28;20036;-63
2021/05/12 05:58:56;;;;;;;0.80;0.80;;;13.20;67.40;;;;;;5022687;28;20042;-64
2021/05/12 06:01:21;;;;;;;0.60;0.60;;;13.20;67.10;;;;;;5022476;28;20071;-63
2021/05/12 06:03:47;;;;;;;0.70;0.70;;;13.30;66.90;;;;;;5021427;28;20025;-64
2021/05/12 06:06:13;;;;;;;0.60;0.60;;;13.40;67.10;;;;;;5021997;28;20534;-64
2021/05/12 06:08:38;;;;;;;2.95;0.75;;;13.50;67.00;;;;;;5025046;28;20029;-63
2021/05/12 06:11:06;;;;;;;0.73;0.73;;;13.70;66.90;;;;;;5021742;28;20148;-64
2021/05/12 06:13:32;;;;;;;0.90;0.70;;;13.80;66.50;;;;;;5020920;28;20017;-64
2021/05/12 06:15:59;;;;;;;0.70;0.70;;;13.90;65.60;;;;;;5017655;28;20048;-64
2021/05/12 06:18:25;;;;;;;1.95;0.90;;;14.00;65.30;;;;;;5018438;28;20056;-63
2021/05/12 06:20:50;;;;;;;0.65;0.65;;;14.00;65.00;;;;;;5017343;28;20041;-64
2021/05/12 06:23:16;;;;;;;0.63;0.63;;;14.00;64.60;;;;;;5022003;28;20040;-64
2021/05/12 06:25:42;;;;;;;0.63;0.63;;;14.00;64.70;;;;;;5020138;28;20108;-65
2021/05/12 06:28:07;;;;;;;0.70;0.70;;;13.90;64.60;;;;;;5017510;28;20032;-64
2021/05/12 06:30:33;;;;;;;0.75;0.75;;;13.90;64.80;;;;;;5013518;28;20227;-63
2021/05/12 06:32:58;;;;;;;0.80;0.80;;;13.90;64.50;;;;;;5015849;28;20115;-63
2021/05/12 06:35:25;;;;;;;1.40;0.70;;;13.90;64.00;;;;;;5018668;28;20424;-63
2021/05/12 06:37:50;;;;;;;0.80;0.80;;;13.80;64.00;;;;;;5020170;28;20857;-63
2021/05/12 06:40:16;;;;;;;0.50;0.50;;;13.70;64.20;;;;;;5020485;28;20036;-61
2021/05/12 06:42:43;;;;;;;1.20;0.80;;;13.70;64.90;;;;;;5018259;28;20029;-61
2021/05/12 06:45:12;;;;;;;0.60;0.60;;;13.70;64.70;;;;;;5019100;28;20106;-62
2021/05/12 06:47:38;;;;;;;1.00;1.00;;;13.60;64.30;;;;;;5017967;28;20037;-62
2021/05/12 06:50:04;;;;;;;0.68;0.68;;;13.60;64.10;;;;;;5019990;28;20056;-62
2021/05/12 06:52:30;;;;;;;0.90;0.90;;;13.60;64.50;;;;;;5020163;28;20033;-62
2021/05/12 06:54:56;;;;;;;0.60;0.60;;;13.60;64.50;;;;;;5022866;28;20092;-62
2021/05/12 06:57:21;;;;;;;0.60;0.60;;;13.60;64.40;;;;;;5015994;28;20391;-64
2021/05/12 06:59:47;;;;;;;0.60;0.60;;;13.60;64.40;;;;;;5013673;28;20061;-63
2021/05/12 07:02:13;;;;;;;0.80;0.80;;;13.70;64.20;;;;;;5016279;28;20083;-66
2021/05/12 07:04:38;;;;;;;1.20;1.10;;;13.70;64.20;;;;;;5017831;28;20040;-65
2021/05/12 07:07:04;;;;;;;1.05;1.02;;;13.70;63.80;;;;;;5016874;28;20793;-65
2021/05/12 07:09:30;;;;;;;0.88;0.88;;;13.70;63.90;;;;;;5017415;28;20457;-64
2021/05/12 07:11:56;;;;;;;0.80;0.80;;;13.80;63.80;;;;;;5016832;28;20025;-65
2021/05/12 07:14:22;;;;;;;0.98;0.98;;;13.90;63.80;;;;;;5017279;28;20030;-64
2021/05/12 07:16:47;;;;;;;1.02;1.02;;;13.90;63.60;;;;;;5017411;28;20025;-66
2021/05/12 07:19:14;;;;;;;1.00;1.00;;;13.90;63.90;;;;;;5020649;28;20112;-64
2021/05/12 07:21:40;;;;;;;1.65;1.02;;;14.00;63.80;;;;;;5020855;28;20033;-64
2021/05/12 07:24:06;;;;;;;1.60;1.50;;;14.00;64.00;;;;;;5017755;28;20028;-64
2021/05/12 07:26:32;;;;;;;0.90;0.90;;;14.00;63.90;;;;;;5018118;28;20113;-65
2021/05/12 07:28:58;;;;;;;1.10;1.10;;;14.10;64.60;;;;;;5022595;28;20198;-66
2021/05/12 07:31:24;;;;;;;1.38;1.27;;;14.10;64.10;;;;;;5011422;28;20040;-67
2021/05/12 07:33:50;;;;;;;1.63;1.52;;;14.10;64.00;;;;;;5021209;28;21331;-66
2021/05/12 07:36:16;;;;;;;1.90;1.80;;;14.10;63.50;;;;;;5019538;28;20030;-66
2021/05/12 07:38:41;;;;;;;1.75;1.65;;;14.10;63.40;;;;;;5019151;28;20034;-65
2021/05/12 07:41:07;;;;;;;1.73;1.63;;;14.10;63.60;;;;;;5020902;28;20382;-67
2021/05/12 07:43:33;;;;;;;1.77;1.67;;;14.20;63.40;;;;;;5013268;28;20104;-66
2021/05/12 07:46:00;;;;;;;2.13;1.95;;;14.20;63.50;;;;;;5013362;28;20497;-66
2021/05/12 07:48:26;;;;;;;1.75;1.65;;;14.30;64.40;;;;;;4996656;28;20033;-65
2021/05/12 07:50:52;;;;;;;2.25;1.90;;;14.30;63.40;;;;;;5016678;28;20033;-64
2021/05/12 07:53:17;;;;;;;2.00;1.90;;;14.40;62.90;;;;;;5016231;28;20076;-67
2021/05/12 07:55:43;;;;;;;2.00;1.83;;;14.30;62.70;;;;;;5014547;28;20500;-65
2021/05/12 07:58:09;;;;;;;2.20;2.00;;;14.30;63.20;;;;;;5016277;28;20040;-63
2021/05/12 08:00:35;;;;;;;2.30;2.10;;;14.30;63.30;;;;;;5013133;28;20048;-66
2021/05/12 08:03:01;;;;;;;2.53;2.03;;;14.30;63.60;;;;;;5011127;28;20041;-65
2021/05/12 08:05:27;;;;;;;2.50;2.30;;;14.40;63.90;;;;;;5018298;28;20389;-66
2021/05/12 08:07:53;;;;;;;2.50;2.30;;;14.40;63.60;;;;;;5014218;28;20033;-66
2021/05/12 08:10:18;;;;;;;2.65;2.38;;;14.50;63.40;;;;;;5015487;28;20477;-67
2021/05/12 08:12:44;;;;;;;2.60;2.40;;;14.50;63.20;;;;;;5021327;28;20041;-63
2021/05/12 08:15:10;;;;;;;2.80;1.98;;;14.50;63.30;;;;;;5018773;28;20061;-64
2021/05/12 08:17:36;;;;;;;2.05;1.90;;;14.50;63.30;;;;;;5008675;28;20108;-66
2021/05/12 08:20:02;;;;;;;3.70;2.28;;;14.60;63.20;;;;;;4999261;28;20132;-65
2021/05/12 08:22:28;;;;;;;2.45;1.90;;;14.60;63.30;;;;;;5015187;28;20100;-64
2021/05/12 08:24:54;;;;;;;2.45;2.25;;;14.60;62.60;;;;;;5013901;28;20487;-64
2021/05/12 08:27:19;;;;;;;2.50;2.30;;;14.50;62.20;;;;;;5020078;28;20034;-65
2021/05/12 08:29:46;;;;;;;2.50;2.30;;;14.50;62.20;;;;;;5016704;28;20034;-63
2021/05/12 08:32:14;;;;;;;2.47;2.28;;;14.50;62.10;;;;;;5010284;28;20038;-66
2021/05/12 08:34:40;;;;;;;2.92;2.25;;;14.50;62.60;;;;;;5013441;28;20454;-65
2021/05/12 08:37:07;;;;;;;2.47;2.28;;;14.50;62.50;;;;;;5021940;28;20115;-66
2021/05/12 08:39:33;;;;;;;2.40;2.20;;;14.60;62.50;;;;;;5019555;28;20118;-66
2021/05/12 08:41:59;;;;;;;2.40;2.00;;;14.60;62.30;;;;;;5019793;28;20065;-64
2021/05/12 08:44:25;;;;;;;2.08;1.90;;;14.60;62.30;;;;;;5016660;28;20487;-64
2021/05/12 08:46:51;;;;;;;1.30;1.30;;;14.60;61.90;;;;;;5017067;28;20033;-64
2021/05/12 08:49:18;;;;;;;1.73;1.30;;;14.60;61.40;;;;;;5010792;28;20040;-65
2021/05/12 08:51:44;;;;;;;1.60;1.50;;;14.60;60.90;;;;;;5017690;28;20052;-65
2021/05/12 08:54:11;;;;;;;1.23;1.23;;;14.60;60.00;;;;;;5011147;28;20052;-63
2021/05/12 08:56:37;;;;;;;1.30;1.30;;;14.60;59.90;;;;;;5015773;28;20478;-66
2021/05/12 08:59:03;;;;;;;1.80;1.42;;;14.60;59.90;;;;;;5012040;28;20029;-66
2021/05/12 09:01:29;;;;;;;1.63;1.52;;;14.60;60.70;;;;;;5013935;28;20033;-65
2021/05/12 09:03:55;;;;;;;1.60;1.50;;;14.70;60.50;;;;;;5019834;28;20108;-64
2021/05/12 09:06:21;;;;;;;1.55;1.45;;;14.80;61.10;;;;;;5015809;28;20029;-66
2021/05/12 09:08:49;;;;;;;1.73;1.63;;;14.90;61.00;;;;;;5016125;28;20084;-64
2021/05/12 09:11:15;;;;;;;2.00;1.90;;;15.10;60.70;;;;;;5018200;28;20109;-62
2021/05/12 09:13:47;;;;;;;1.88;1.77;;;15.10;60.70;;;;;;5015675;28;20040;-63
2021/05/12 09:16:19;;;;;;;2.08;1.90;;;15.20;60.80;;;;;;5016489;28;20037;-65
2021/05/12 09:18:46;;;;;;;1.80;1.70;;;15.30;60.60;;;;;;5018312;28;20037;-64
2021/05/12 09:21:12;;;;;;;1.60;1.50;;;15.40;60.70;;;;;;5016540;28;20128;-64
2021/05/12 09:23:40;;;;;;;1.95;1.75;;;15.40;60.80;;;;;;5014894;28;20120;-61
2021/05/12 09:26:12;;;;;;;2.10;1.98;;;15.40;60.70;;;;;;5020560;28;20478;-62
2021/05/12 09:28:38;;;;;;;1.80;1.70;;;15.40;60.60;;;;;;5023562;28;20725;-63
2021/05/12 09:31:11;;;;;;;2.05;1.63;;;15.30;60.40;;;;;;5016631;28;20024;-58
2021/05/12 09:33:40;;;;;;;1.75;1.65;;;15.30;60.50;;;;;;5011872;28;20507;-63
2021/05/12 09:36:10;;;;;;;1.35;1.35;;;15.30;60.40;;;;;;5019124;28;20167;-60
2021/05/12 09:38:37;;;;;;;1.40;1.30;;;15.30;60.80;;;;;;5018135;28;20044;-61
2021/05/12 09:41:07;;;;;;;1.55;1.45;;;15.20;60.40;;;;;;5014404;28;20408;-60
2021/05/12 09:43:36;;;;;;;1.23;1.17;;;15.30;60.20;;;;;;5018705;28;20485;-60
2021/05/12 09:46:38;;;;;;;1.58;1.48;;;15.30;59.70;;;;;;5013764;28;20037;-63
2021/05/12 09:49:03;;;;;;;1.40;1.30;;;15.30;59.00;;;;;;4980953;28;20095;-61
2021/05/12 09:51:41;;;;;;;1.38;1.38;;;15.40;59.40;;;;;;5014846;28;20041;-62
2021/05/12 09:54:19;;;;;;;1.30;1.17;;;15.40;59.10;;;;;;5012536;28;20045;-62
2021/05/12 09:56:55;;;;;;;1.30;1.30;;;15.40;59.10;;;;;;5009432;28;20037;-63
2021/05/12 09:59:26;;;;;;;1.60;1.50;;;15.50;59.00;;;;;;5003216;28;20123;-60
2021/05/12 10:02:13;;;;;;;1.70;1.60;;;15.50;59.10;;;;;;5010073;28;22080;-58
2021/05/12 10:04:42;;;;;;;1.15;1.15;;;15.50;59.30;;;;;;5012799;28;20030;-61
2021/05/12 10:07:19;;;;;;;1.10;1.10;;;15.50;58.70;;;;;;5006145;28;20141;-61
2021/05/12 10:09:47;;;;;;;1.35;1.25;;;15.50;58.50;;;;;;5008751;28;20037;-60
2021/05/12 10:12:17;;;;;;;1.08;1.08;;;15.40;58.40;;;;;;5016446;28;20112;-60
2021/05/12 10:14:51;;;;;;;1.30;1.30;;;15.50;58.30;;;;;;5021297;28;20037;-59
2021/05/12 10:17:19;;;;;;;1.52;1.30;;;15.40;58.30;;;;;;5015485;28;20079;-58
2021/05/12 10:19:47;;;;;;;1.27;1.27;;;15.40;57.80;;;;;;5017181;28;20042;-59
2021/05/12 10:22:13;;;;;;;1.25;1.25;;;15.40;57.90;;;;;;5011836;28;20044;-57
2021/05/12 10:24:41;;;;;;;1.30;1.30;;;15.40;58.00;;;;;;5016187;28;20036;-59
2021/05/12 10:27:10;;;;;;;1.55;1.50;;;15.40;58.30;;;;;;5009126;28;20030;-60
2021/05/12 10:29:37;;;;;;;1.90;1.80;;;15.40;58.10;;;;;;5014854;28;20037;-60
2021/05/12 10:32:21;;;;;;;1.77;1.67;;;15.40;58.20;;;;;;5007572;28;20026;-59
2021/05/12 10:34:48;;;;;;;1.75;1.65;;;15.50;58.70;;;;;;5013478;28;20107;-58
2021/05/12 10:37:29;;;;;;;2.10;2.00;;;15.40;58.50;;;;;;5011381;28;20120;-60
2021/05/12 10:40:16;;;;;;;2.03;1.92;;;15.50;58.70;;;;;;5016343;28;21146;-62
2021/05/12 10:45:33;;;;;;;2.08;1.98;;;15.60;58.70;;;;;;5021509;28;20087;-63
2021/05/12 10:47:59;;;;;;;1.85;1.75;;;15.70;59.00;;;;;;5014027;28;20041;-60
2021/05/12 10:50:48;;;;;;;1.80;1.70;;;15.70;58.70;;;;;;5017700;28;20067;-61
2021/05/12 10:53:24;;;;;;;2.08;1.85;;;15.60;58.30;;;;;;5015351;28;20033;-62
2021/05/12 10:56:01;;;;;;;2.10;1.90;;;15.50;58.50;;;;;;5019812;28;20053;-61
2021/05/12 10:59:06;;;;;;;1.80;1.70;;;15.50;59.00;;;;;;5014943;28;20112;-62
2021/05/12 11:01:41;;;;;;;2.30;2.10;;;15.50;59.00;;;;;;5007248;28;20834;-61
2021/05/12 11:04:10;;;;;;;1.90;1.80;;;15.60;58.90;;;;;;4999172;28;20096;-61
2021/05/12 11:06:35;;;;;;;1.88;1.77;;;15.60;58.60;;;;;;5008496;28;20971;-61
2021/05/12 11:09:08;;;;;;;2.20;2.10;;;15.60;58.40;;;;;;5010892;28;20030;-61
2021/05/12 11:11:45;;;;;;;1.90;1.80;;;15.70;58.60;;;;;;5016724;28;20029;-62
2021/05/12 11:14:31;;;;;;;1.92;1.65;;;15.70;58.60;;;;;;5015475;28;20099;-61
2021/05/12 11:17:10;;;;;;;1.90;1.73;;;15.70;58.50;;;;;;5013262;28;20092;-63
2021/05/12 11:19:57;;;;;;;2.10;2.00;;;15.70;58.60;;;;;;5012679;28;20350;-64
2021/05/12 11:22:37;;;;;;;2.38;2.17;;;15.70;58.50;;;;;;5015473;28;20466;-63
2021/05/12 11:25:37;;;;;;;2.38;2.03;;;15.60;58.70;;;;;;5017317;28;20116;-63
2021/05/12 11:33:30;;;;;;;2.60;2.17;;;15.50;59.00;;;;;;5014031;28;20036;-61
2021/05/12 11:36:04;;;;;;;2.38;2.20;;;15.50;58.70;;;;;;5010323;28;20049;-58
2021/05/12 11:38:30;;;;;;;2.50;2.30;;;15.50;58.80;;;;;;5016937;28;20042;-60
2021/05/12 11:41:11;;;;;;;2.75;2.55;;;15.50;58.90;;;;;;5008839;28;20045;-61
2021/05/12 11:43:46;;;;;;;2.70;2.50;;;15.60;59.70;;;;;;5009811;28;20509;-60
2021/05/12 11:46:18;;;;;;;2.58;2.38;;;15.60;59.10;;;;;;5011084;28;20744;-61
2021/05/12 11:48:55;;;;;;;2.80;2.60;;;15.70;59.20;;;;;;5012711;28;20470;-61
2021/05/12 11:51:24;;;;;;;3.03;2.75;;;15.70;59.00;;;;;;5014338;28;20094;-61
2021/05/12 11:53:50;;;;;;;2.65;2.45;;;15.70;58.90;;;;;;5009370;28;20037;-60
2021/05/12 11:56:15;;;;;;;2.90;2.70;;;15.70;58.60;;;;;;5012437;28;20051;-61
2021/05/12 11:58:58;;;;;;;3.58;2.88;;;15.70;58.00;;;;;;5007812;28;20030;-63
2021/05/12 12:01:24;;;;;;;2.70;2.50;;;15.70;58.10;;;;;;5001029;28;20040;-63
2021/05/12 12:06:38;;;;;;;34.13;15.80;;;15.70;58.10;;;;;;5007144;28;20072;-60
2021/05/12 12:09:04;;;;;;;55.65;45.92;;;15.70;58.30;;;;;;5009941;28;20404;-63
2021/05/12 12:11:33;;;;;;;12.27;10.40;;;15.70;61.00;;;;;;5009857;28;20033;-64
2021/05/12 12:14:00;;;;;;;6.53;5.55;;;15.80;61.90;;;;;;5014433;28;20187;-65
2021/05/12 12:16:26;;;;;;;4.30;3.90;;;15.70;61.50;;;;;;5013654;28;20017;-63
2021/05/12 12:18:52;;;;;;;3.40;3.10;;;15.70;61.50;;;;;;5009211;28;20116;-64
2021/05/12 12:21:29;;;;;;;3.22;2.92;;;15.60;62.10;;;;;;4996301;28;20039;-64
2021/05/12 12:23:56;;;;;;;2.80;2.55;;;15.60;61.90;;;;;;5011808;28;20034;-66
2021/05/12 12:26:23;;;;;;;2.58;2.38;;;15.50;62.30;;;;;;5015004;28;20033;-66
2021/05/12 12:28:57;;;;;;;2.53;2.28;;;15.50;62.40;;;;;;5010697;28;20354;-66
2021/05/12 12:31:29;;;;;;;2.45;2.25;;;15.50;62.80;;;;;;5010567;28;20931;-65
2021/05/12 12:34:23;;;;;;;3.25;2.60;;;15.40;62.40;;;;;;5000662;28;20029;-67
2021/05/12 12:36:57;;;;;;;2.40;2.20;;;15.40;62.40;;;;;;4999414;28;20030;-65
2021/05/12 12:39:40;;;;;;;2.40;2.20;;;15.40;62.30;;;;;;5014134;28;20132;-65
2021/05/12 12:42:07;;;;;;;2.60;2.40;;;15.40;63.20;;;;;;5015656;28;20030;-65
2021/05/12 12:44:42;;;;;;;2.55;2.35;;;15.40;64.00;;;;;;5014374;28;20033;-64
2021/05/12 12:47:15;;;;;;;3.15;2.85;;;15.40;63.70;;;;;;5015233;28;20028;-64
2021/05/12 12:49:47;;;;;;;2.15;2.05;;;15.40;63.40;;;;;;4996960;28;20548;-63
2021/05/12 12:52:20;;;;;;;2.72;2.40;;;15.40;63.40;;;;;;5009174;28;20029;-63
2021/05/12 12:57:21;;;;;;;2.40;2.20;;;15.50;63.40;;;;;;5010639;28;20077;-64
2021/05/12 13:00:09;;;;;;;2.90;2.03;;;15.50;63.30;;;;;;5019252;28;20106;-62
2021/05/12 13:02:37;;;;;;;2.50;2.30;;;15.60;63.10;;;;;;5007147;28;20033;-64
2021/05/12 13:05:19;;;;;;;2.80;2.08;;;15.50;63.50;;;;;;5005846;28;20044;-68